Hauptseite
METAR-TAF:

METAR-TAF

Flughäfen :

Flughafen Barcelona-El Prat

Barcelona, Spanien

Breite: 41-17N, Länge: 002-04E, Höhe: 4 m

Beobachtung

Neuester Wetterbericht von vor 27 Minuten, um 15:00 UTC
Wind 15 kt aus Südwest
Temperatur 18°C
Luftfeuchtigkeit 52%
Luftdruck 1021 hPa
Sichtweite 10 km oder mehr
keine Wolken unter 1500 m und keine Kumulonimbus oder Gewitterwolken

METAR: LEBL 241500Z 22015KT CAVOK 18/08 Q1021 NOSIG

Zeit: 16:27 (15:27 UTC)

Prognose

Neuester Wetterbericht von vor 3 Stunden und 26 Minuten, um 12:01 UTC
Gültige Prognose vom 24 um 12 UTC bis 25 um 12 UTC
Wind 12 kt aus Süd/Südwest
Sichtweite: 9000 m
Leicht bewölkt in der Höhe von 3000 ft
Übergehend zu
vom 24 um 19 UTC bis 24 um 21 UTC
Wind 5 kt aus unterschiedlichen Richtungen

TAF: LEBL 241201Z 2412/2512 20012KT 9000 FEW030 TX19/2413Z TN08/2506Z BECMG 2419/2421 VRB05KT

Wetterbeobachtungen und Prognosen von mehr als 4000 Flughäfen (METAR und TAF Bericht).

Die verfügbaren Stationen werden durch gelbe und rote Markierungen auf der Karte dargestellt.

Führen Sie die Maus auf sie, um den Namen der Station zu sehen.

Darauf klicken, um die Beobachtung von Wetterbeobachtungen und Prognosen zu sehen.

Um die Karte zu ändern : klicken Sie auf den grünen Tasten mit einem schwarzen Kreuz Zum Vergrößern, auf den grünen Button mit einem Gedankenstrich zu verkleinern, oder auf die grünen Pfeile für benachbarte Karten.


METAR-TAF: